Coatesville, PA

12:06 PM EST on December 22, 2014 (GMT -0500)
Caln Township | Change Station
CLOSE
Current Station
Personal Weather Station
Location: Coatesville, PA
Elevation: 404 ft
Nearby Weather Stations

Elev 404 ft 39.99 °N, 75.79 °W | Updated 7 seconds ago

Mostly Cloudy
Mostly Cloudy
37.6 °F
Feels Like 38 °F
N
1.7
Wind Variable Wind from NE
Gusts 4.2 mph

Today
High -- | Low -- °F
--% Chance of Precip.
Yesterday
High -- | Low -- °F
Precip. -- in
7:21 AM 4:41 PM
New Moon, 1% visible
Pressure 30.24 in
Visibility 10.0 miles
Clouds Overcast 3500 ft
Windchill 38 °F
Dew Point 33 °F
Humidity 82%
Rainfall 0.00 in
Snow Depth Not available.
UV 1 out of 12
Pollen .10 out of 12
Air Quality Not available.
Flu Activity Not available.
METAR KMQS 221655Z AUTO 00000KT 10SM OVC035 03/00 A3024 RMK AO2

More Conditions Fewer Conditions

Pressure 30.24 in
Visibility 10.0 miles
Clouds Overcast 3500 ft
Windchill 38 °F
Dew Point 33 °F
Humidity 82%
Rainfall 0.00 in
Snow Depth Not available.
UV 1 out of 12
Pollen .10 out of 12
Air Quality Not available.
Flu Activity Not available.
METAR KMQS 221655Z AUTO 00000KT 10SM OVC035 03/00 A3024 RMK AO2

More Conditions Fewer Conditions

10-Day Weather Forecast

Almanac

Astronomy

Dec. 22, 2014 Rise Set
Actual Time
Civil Twilight
Nautical Twilight
Astronomical Twilight
Moon
Length of Visible Light
Length of Day
Tomorrow will be .
, % of the Moon is Illuminated

Today's Extremes

State Highs State Lows

Community

WunderPhotos

Upload Photos

1,779,645 photos uploaded!

WunderBlogs® & News

Nearby

Air Quality

  Air Quality AQ Index Pollutant
Not available.

Snow Depth

Station Depth Elevation

Earthquake Activity

City Distance Mag. Time & Date
Minimum magnitude displayed is 2.5.

Coastal Water Temperatures

Place Temperature

Nearby Weather Stations